createdAt,value
2022-09-17T00:00:03.824Z,969.79
2022-09-17T00:01:03.877Z,969.90
2022-09-17T00:02:03.054Z,969.90
2022-09-17T00:03:03.006Z,969.79
2022-09-17T00:04:03.025Z,970.03
2022-09-17T00:05:02.970Z,970.01
2022-09-17T00:06:03.285Z,969.90
2022-09-17T00:07:03.323Z,970.00
2022-09-17T00:08:03.337Z,969.93
2022-09-17T00:09:03.455Z,969.90
2022-09-17T00:10:03.713Z,969.90
2022-09-17T00:11:03.709Z,969.90
2022-09-17T00:12:03.833Z,969.93
2022-09-17T00:13:03.023Z,969.97
2022-09-17T00:14:02.997Z,969.97
2022-09-17T00:15:02.942Z,969.89
2022-09-17T00:16:03.150Z,969.92
2022-09-17T00:17:03.108Z,969.97
2022-09-17T00:18:03.155Z,970.03
2022-09-17T00:19:03.235Z,969.92
2022-09-17T00:20:03.202Z,969.97
2022-09-17T00:21:03.371Z,970.02
2022-09-17T00:22:03.356Z,970.02
2022-09-17T00:23:03.311Z,970.08
2022-09-17T00:24:03.296Z,970.02
2022-09-17T00:25:03.447Z,969.97
2022-09-17T00:26:03.489Z,970.11
2022-09-17T00:27:03.464Z,969.97
2022-09-17T00:28:03.522Z,970.11
2022-09-17T00:29:03.493Z,970.08
2022-09-17T00:30:03.701Z,969.97
2022-09-17T00:31:03.706Z,970.02
2022-09-17T00:32:03.884Z,970.02
2022-09-17T00:33:03.768Z,969.83
2022-09-17T00:34:02.895Z,969.91
2022-09-17T00:35:03.014Z,970.05
2022-09-17T00:36:02.966Z,970.02
2022-09-17T00:37:03.036Z,969.96
2022-09-17T00:38:03.108Z,970.02
2022-09-17T00:39:03.175Z,970.02
2022-09-17T00:40:03.288Z,969.99
2022-09-17T00:41:03.188Z,969.96
2022-09-17T00:42:03.138Z,969.91
2022-09-17T00:43:03.240Z,970.13
2022-09-17T00:44:03.349Z,969.88
2022-09-17T00:45:03.523Z,969.98
2022-09-17T00:46:03.700Z,970.01
2022-09-17T00:47:03.578Z,970.01
2022-09-17T00:48:03.555Z,969.88
2022-09-17T00:49:03.530Z,969.98
2022-09-17T00:50:03.696Z,969.98
2022-09-17T00:51:03.705Z,970.04
2022-09-17T00:52:03.703Z,970.01
2022-09-17T00:53:03.696Z,969.98
2022-09-17T00:54:03.787Z,969.93
2022-09-17T00:55:03.685Z,969.93
2022-09-17T00:56:03.698Z,970.04
2022-09-17T00:57:03.695Z,969.88
2022-09-17T00:58:03.639Z,969.93
2022-09-17T00:59:03.748Z,969.90
2022-09-17T01:00:03.643Z,969.93
2022-09-17T01:01:03.905Z,969.93
2022-09-17T01:02:03.867Z,969.98
2022-09-17T01:03:03.751Z,970.09
2022-09-17T01:04:03.907Z,969.93
2022-09-17T01:05:02.908Z,970.03
2022-09-17T01:06:02.915Z,970.06
2022-09-17T01:07:03.038Z,969.98
2022-09-17T01:08:03.147Z,970.15
2022-09-17T01:09:03.268Z,969.97
2022-09-17T01:10:03.330Z,970.14
2022-09-17T01:11:03.316Z,970.00
2022-09-17T01:12:03.349Z,969.90
2022-09-17T01:13:03.353Z,970.03
2022-09-17T01:14:03.432Z,970.09
2022-09-17T01:15:03.374Z,970.03
2022-09-17T01:16:03.645Z,969.97
2022-09-17T01:17:03.539Z,969.97
2022-09-17T01:18:03.742Z,970.00
2022-09-17T01:19:03.702Z,969.92
2022-09-17T01:20:03.836Z,970.00
2022-09-17T01:21:02.882Z,970.00
2022-09-17T01:22:03.009Z,969.92
2022-09-17T01:23:03.035Z,970.00
2022-09-17T01:24:03.096Z,970.11
2022-09-17T01:25:03.045Z,970.08
2022-09-17T01:26:03.153Z,969.92
2022-09-17T01:27:03.266Z,969.92
2022-09-17T01:28:03.354Z,969.87
2022-09-17T01:29:03.484Z,969.97
2022-09-17T01:30:03.485Z,970.08
2022-09-17T01:31:03.752Z,970.03
2022-09-17T01:32:03.764Z,970.06
2022-09-17T01:33:03.700Z,969.92
2022-09-17T01:34:03.784Z,970.03
2022-09-17T01:35:03.856Z,970.12
2022-09-17T01:36:02.915Z,969.93
2022-09-17T01:37:02.991Z,969.90
2022-09-17T01:38:03.173Z,969.97
2022-09-17T01:39:03.120Z,969.93
2022-09-17T01:40:03.506Z,969.93
2022-09-17T01:41:03.356Z,969.84
2022-09-17T01:42:03.331Z,969.90
2022-09-17T01:43:03.515Z,970.03
2022-09-17T01:44:03.519Z,970.00
2022-09-17T01:45:03.495Z,969.84
2022-09-17T01:46:03.552Z,969.90
2022-09-17T01:47:03.586Z,969.93
2022-09-17T01:48:03.649Z,969.82
2022-09-17T01:49:03.652Z,969.82
2022-09-17T01:50:03.762Z,970.01
2022-09-17T01:51:03.775Z,969.93
2022-09-17T01:52:03.726Z,969.87
2022-09-17T01:53:03.818Z,969.82
2022-09-17T01:54:02.897Z,970.01
2022-09-17T01:55:02.950Z,969.90
2022-09-17T01:56:02.966Z,969.84
2022-09-17T01:57:03.094Z,969.82
2022-09-17T01:58:03.144Z,969.82
2022-09-17T01:59:03.271Z,969.98
2022-09-17T02:00:03.255Z,969.84
2022-09-17T02:01:03.566Z,970.01
2022-09-17T02:02:03.635Z,969.93
2022-09-17T02:03:03.421Z,969.76
2022-09-17T02:04:03.374Z,969.84
2022-09-17T02:05:03.442Z,969.90
2022-09-17T02:06:03.500Z,969.90
2022-09-17T02:07:03.447Z,970.03
2022-09-17T02:08:03.608Z,969.93
2022-09-17T02:09:03.495Z,969.93
2022-09-17T02:10:03.544Z,969.85
2022-09-17T02:11:03.596Z,969.79
2022-09-17T02:12:03.619Z,969.79
2022-09-17T02:13:03.643Z,969.82
2022-09-17T02:14:03.650Z,969.85
2022-09-17T02:15:03.646Z,969.87
2022-09-17T02:16:03.826Z,969.98
2022-09-17T02:17:03.906Z,970.01
2022-09-17T02:18:02.992Z,969.90
2022-09-17T02:19:03.085Z,969.87
2022-09-17T02:20:02.980Z,969.79
2022-09-17T02:21:03.059Z,969.85
2022-09-17T02:22:03.144Z,969.90
2022-09-17T02:23:03.153Z,969.84
2022-09-17T02:24:03.229Z,969.90
2022-09-17T02:25:03.404Z,969.87
2022-09-17T02:26:03.325Z,970.15
2022-09-17T02:27:03.386Z,969.82
2022-09-17T02:28:04.040Z,969.98
2022-09-17T02:29:03.507Z,969.87
2022-09-17T02:30:03.520Z,969.87
2022-09-17T02:31:03.697Z,969.84
2022-09-17T02:32:03.494Z,969.90
2022-09-17T02:33:03.524Z,969.90
2022-09-17T02:34:03.587Z,969.93
2022-09-17T02:35:03.577Z,969.93
2022-09-17T02:36:03.629Z,969.90
2022-09-17T02:37:03.656Z,969.90
2022-09-17T02:38:03.674Z,969.87
2022-09-17T02:39:03.637Z,970.00
2022-09-17T02:40:03.831Z,970.03
2022-09-17T02:41:03.765Z,969.70
2022-09-17T02:42:03.680Z,969.90
2022-09-17T02:43:03.666Z,969.87
2022-09-17T02:44:03.753Z,969.84
2022-09-17T02:45:03.850Z,969.70
2022-09-17T02:46:02.922Z,969.98
2022-09-17T02:47:03.911Z,969.90
2022-09-17T02:48:02.927Z,969.76
2022-09-17T02:49:02.981Z,969.70
2022-09-17T02:50:02.927Z,969.87
2022-09-17T02:51:03.018Z,970.01
2022-09-17T02:52:03.101Z,969.93
2022-09-17T02:53:03.122Z,969.87
2022-09-17T02:54:03.258Z,969.87
2022-09-17T02:55:03.437Z,969.84
2022-09-17T02:56:03.366Z,969.76
2022-09-17T02:57:03.455Z,969.98
2022-09-17T02:58:03.443Z,969.79
2022-09-17T02:59:03.757Z,969.90
2022-09-17T03:00:03.779Z,969.76
2022-09-17T03:01:03.935Z,969.76
2022-09-17T03:02:03.984Z,969.82
2022-09-17T03:03:02.954Z,969.90
2022-09-17T03:04:02.941Z,969.84
2022-09-17T03:05:03.035Z,969.85
2022-09-17T03:06:03.017Z,969.76
2022-09-17T03:07:03.038Z,969.76
2022-09-17T03:08:03.026Z,969.79
2022-09-17T03:09:03.151Z,969.73
2022-09-17T03:10:03.106Z,969.85
2022-09-17T03:11:03.145Z,969.82
2022-09-17T03:12:03.302Z,969.76
2022-09-17T03:13:03.243Z,969.79
2022-09-17T03:14:03.229Z,969.82
2022-09-17T03:15:03.191Z,969.70
2022-09-17T03:16:03.446Z,969.82
2022-09-17T03:17:03.432Z,969.62
2022-09-17T03:18:03.578Z,969.76
2022-09-17T03:19:03.582Z,969.73
2022-09-17T03:20:03.646Z,969.68
2022-09-17T03:21:03.742Z,969.85
2022-09-17T03:22:03.788Z,969.90
2022-09-17T03:23:03.879Z,969.76
2022-09-17T03:24:03.812Z,969.74
2022-09-17T03:25:02.967Z,969.82
2022-09-17T03:26:03.041Z,969.76
2022-09-17T03:27:03.137Z,969.79
2022-09-17T03:28:03.246Z,969.91
2022-09-17T03:29:03.208Z,969.82
2022-09-17T03:30:03.328Z,969.76
2022-09-17T03:31:03.981Z,969.85
2022-09-17T03:32:03.042Z,969.85
2022-09-17T03:33:03.069Z,969.71
2022-09-17T03:34:03.182Z,969.88
2022-09-17T03:35:03.213Z,969.77
2022-09-17T03:36:03.339Z,969.88
2022-09-17T03:37:03.327Z,969.71
2022-09-17T03:38:03.296Z,969.83
2022-09-17T03:39:03.308Z,969.83
2022-09-17T03:40:03.980Z,969.74
2022-09-17T03:41:02.898Z,969.71
2022-09-17T03:42:02.882Z,969.77
2022-09-17T03:43:03.052Z,969.71
2022-09-17T03:44:03.258Z,969.72
2022-09-17T03:45:03.163Z,969.74
2022-09-17T03:46:03.401Z,969.74
2022-09-17T03:47:03.264Z,969.83
2022-09-17T03:48:03.459Z,969.89
2022-09-17T03:49:03.363Z,969.77
2022-09-17T03:50:03.368Z,969.83
2022-09-17T03:51:03.400Z,969.75
2022-09-17T03:52:03.363Z,969.78
2022-09-17T03:53:03.537Z,969.78
2022-09-17T03:54:03.548Z,969.69
2022-09-17T03:55:03.569Z,969.92
2022-09-17T03:56:03.692Z,969.66
2022-09-17T03:57:03.668Z,969.78
2022-09-17T03:58:03.850Z,969.78
2022-09-17T03:59:02.937Z,969.81
2022-09-17T04:00:03.185Z,969.72
2022-09-17T04:01:03.002Z,969.67
2022-09-17T04:02:03.446Z,969.78
2022-09-17T04:03:03.247Z,969.75
2022-09-17T04:04:03.160Z,969.69
2022-09-17T04:05:03.142Z,969.72
2022-09-17T04:06:03.271Z,969.81
2022-09-17T04:07:03.405Z,969.73
2022-09-17T04:08:03.460Z,969.61
2022-09-17T04:09:03.464Z,969.67
2022-09-17T04:10:03.548Z,969.64
2022-09-17T04:11:03.640Z,969.58
2022-09-17T04:12:03.785Z,969.61
2022-09-17T04:13:03.788Z,969.64
2022-09-17T04:14:03.705Z,969.67
2022-09-17T04:15:03.854Z,969.53
2022-09-17T04:16:03.091Z,969.64
2022-09-17T04:17:03.047Z,969.67
2022-09-17T04:18:03.177Z,969.76
2022-09-17T04:19:04.152Z,969.79
2022-09-17T04:20:03.459Z,969.70
2022-09-17T04:21:03.581Z,969.61
2022-09-17T04:22:03.744Z,969.70
2022-09-17T04:23:03.695Z,969.76
2022-09-17T04:24:03.619Z,969.76
2022-09-17T04:25:03.969Z,969.73
2022-09-17T04:26:03.028Z,969.70
2022-09-17T04:27:02.974Z,969.70
2022-09-17T04:28:03.109Z,969.67
2022-09-17T04:29:03.163Z,969.56
2022-09-17T04:30:03.153Z,969.65
2022-09-17T04:31:03.438Z,969.62
2022-09-17T04:32:03.294Z,969.59
2022-09-17T04:33:03.298Z,969.59
2022-09-17T04:34:03.322Z,969.65
2022-09-17T04:35:03.303Z,969.62
2022-09-17T04:36:03.371Z,969.59
2022-09-17T04:37:03.567Z,969.56
2022-09-17T04:38:03.429Z,969.71
2022-09-17T04:39:03.461Z,969.54
2022-09-17T04:40:08.301Z,969.65
2022-09-17T04:41:03.502Z,969.65
2022-09-17T04:42:03.524Z,969.59
2022-09-17T04:43:03.771Z,969.62
2022-09-17T04:44:03.622Z,969.65
2022-09-17T04:45:03.556Z,969.65
2022-09-17T04:46:03.791Z,969.57
2022-09-17T04:47:03.764Z,969.62
2022-09-17T04:48:03.818Z,969.54
2022-09-17T04:49:02.976Z,969.60
2022-09-17T04:50:03.014Z,969.57
2022-09-17T04:51:03.129Z,969.54
2022-09-17T04:52:03.086Z,969.51
2022-09-17T04:53:03.240Z,969.63
2022-09-17T04:54:03.325Z,969.77
2022-09-17T04:55:03.481Z,969.63
2022-09-17T04:56:03.461Z,969.74
2022-09-17T04:57:03.439Z,969.68
2022-09-17T04:58:03.563Z,969.68
2022-09-17T04:59:03.727Z,969.85
2022-09-17T05:00:03.695Z,969.74
2022-09-17T05:01:04.286Z,969.68
2022-09-17T05:02:03.068Z,969.68
2022-09-17T05:03:02.917Z,969.74
2022-09-17T05:04:03.932Z,969.80
2022-09-17T05:05:02.969Z,969.88
2022-09-17T05:06:02.985Z,969.74
2022-09-17T05:07:03.389Z,969.77
2022-09-17T05:08:03.467Z,969.80
2022-09-17T05:09:03.467Z,969.71
2022-09-17T05:10:03.522Z,969.85
2022-09-17T05:11:03.612Z,969.88
2022-09-17T05:12:03.554Z,969.77
2022-09-17T05:13:03.614Z,969.82
2022-09-17T05:14:03.694Z,969.91
2022-09-17T05:15:03.684Z,969.88
2022-09-17T05:16:03.811Z,969.88
2022-09-17T05:17:03.845Z,969.91
2022-09-17T05:18:03.876Z,970.04
2022-09-17T05:19:04.014Z,969.88
2022-09-17T05:20:02.995Z,970.16
2022-09-17T05:21:03.875Z,970.07
2022-09-17T05:22:03.889Z,970.01
2022-09-17T05:23:03.076Z,970.01
2022-09-17T05:24:02.985Z,970.01
2022-09-17T05:25:03.177Z,969.96
2022-09-17T05:26:03.291Z,969.96
2022-09-17T05:27:03.281Z,970.01
2022-09-17T05:28:03.358Z,970.10
2022-09-17T05:29:03.511Z,970.13
2022-09-17T05:30:03.443Z,970.07
2022-09-17T05:31:03.624Z,970.13
2022-09-17T05:32:03.498Z,970.21
2022-09-17T05:33:03.751Z,970.21
2022-09-17T05:34:03.692Z,970.12
2022-09-17T05:35:06.202Z,970.15
2022-09-17T05:36:03.887Z,970.18
2022-09-17T05:37:03.005Z,970.15
2022-09-17T05:38:03.142Z,970.18
2022-09-17T05:39:03.123Z,970.18
2022-09-17T05:40:03.238Z,970.29
2022-09-17T05:41:03.232Z,970.18
2022-09-17T05:42:03.221Z,970.29
2022-09-17T05:43:03.204Z,970.12
2022-09-17T05:44:03.303Z,970.12
2022-09-17T05:45:03.281Z,970.18
2022-09-17T05:46:03.347Z,970.20
2022-09-17T05:47:03.333Z,970.12
2022-09-17T05:48:03.294Z,970.20
2022-09-17T05:49:03.455Z,970.17
2022-09-17T05:50:03.802Z,970.26
2022-09-17T05:51:03.003Z,970.32
2022-09-17T05:52:03.093Z,970.12
2022-09-17T05:53:03.170Z,970.17
2022-09-17T05:54:02.995Z,970.31
2022-09-17T05:55:03.168Z,970.31
2022-09-17T05:56:03.266Z,970.45
2022-09-17T05:57:03.644Z,970.20
2022-09-17T05:58:03.624Z,970.20
2022-09-17T05:59:03.803Z,970.42
2022-09-17T06:00:03.901Z,970.26
2022-09-17T06:01:03.459Z,970.31
2022-09-17T06:02:03.583Z,970.40
2022-09-17T06:03:03.705Z,970.37
2022-09-17T06:04:03.710Z,970.47
2022-09-17T06:05:03.612Z,970.42
2022-09-17T06:06:03.749Z,970.42
2022-09-17T06:07:03.792Z,970.42
2022-09-17T06:08:03.739Z,970.37
2022-09-17T06:09:03.929Z,970.47
2022-09-17T06:10:04.101Z,970.37
2022-09-17T06:11:03.046Z,970.55
2022-09-17T06:12:03.538Z,970.58
2022-09-17T06:13:03.466Z,970.58
2022-09-17T06:14:03.609Z,970.55
2022-09-17T06:15:03.683Z,970.58
2022-09-17T06:16:04.000Z,970.47
2022-09-17T06:17:03.871Z,970.49
2022-09-17T06:18:03.819Z,970.49
2022-09-17T06:19:03.872Z,970.42
2022-09-17T06:20:03.868Z,970.46
2022-09-17T06:21:03.806Z,970.42
2022-09-17T06:22:02.926Z,970.58
2022-09-17T06:23:03.015Z,970.58
2022-09-17T06:24:03.179Z,970.46
2022-09-17T06:25:03.212Z,970.60
2022-09-17T06:26:03.115Z,970.58
2022-09-17T06:27:03.206Z,970.46
2022-09-17T06:28:03.259Z,970.46
2022-09-17T06:29:03.301Z,970.46
2022-09-17T06:30:03.230Z,970.57
2022-09-17T06:31:03.496Z,970.54
2022-09-17T06:32:03.332Z,970.60
2022-09-17T06:33:03.428Z,970.49
2022-09-17T06:34:02.934Z,970.63
2022-09-17T06:35:03.335Z,970.57
2022-09-17T06:36:03.477Z,970.51
2022-09-17T06:37:03.369Z,970.46
2022-09-17T06:38:03.464Z,970.60
2022-09-17T06:39:03.747Z,970.60
2022-09-17T06:40:03.686Z,970.54
2022-09-17T06:41:03.714Z,970.66
2022-09-17T06:42:03.717Z,970.60
2022-09-17T06:43:03.780Z,970.54
2022-09-17T06:44:03.847Z,970.41
2022-09-17T06:45:12.184Z,970.48
2022-09-17T06:46:02.901Z,970.54
2022-09-17T06:47:03.023Z,970.51
2022-09-17T06:48:03.446Z,970.48
2022-09-17T06:49:03.462Z,970.51
2022-09-17T06:50:03.428Z,970.45
2022-09-17T06:51:03.428Z,970.56
2022-09-17T06:52:03.508Z,970.45
2022-09-17T06:53:03.441Z,970.45
2022-09-17T06:54:03.430Z,970.48
2022-09-17T06:55:03.498Z,970.59
2022-09-17T06:56:07.145Z,970.42
2022-09-17T06:57:03.715Z,970.53
2022-09-17T06:58:03.830Z,970.47
2022-09-17T06:59:03.805Z,970.56
2022-09-17T07:00:02.941Z,970.64
2022-09-17T07:01:03.166Z,970.50
2022-09-17T07:02:03.135Z,970.47
2022-09-17T07:03:03.052Z,970.47
2022-09-17T07:04:03.132Z,970.67
2022-09-17T07:05:03.070Z,970.47
2022-09-17T07:06:03.155Z,970.44
2022-09-17T07:07:03.204Z,970.47
2022-09-17T07:08:03.069Z,970.61
2022-09-17T07:09:09.125Z,970.49
2022-09-17T07:10:03.720Z,970.52
2022-09-17T07:11:03.745Z,970.38
2022-09-17T07:12:03.768Z,970.35
2022-09-17T07:13:03.846Z,970.32
2022-09-17T07:14:03.011Z,970.45
2022-09-17T07:15:02.990Z,970.47
2022-09-17T07:16:03.213Z,970.34
2022-09-17T07:17:03.058Z,970.39
2022-09-17T07:18:03.052Z,970.39
2022-09-17T07:19:03.075Z,970.33
2022-09-17T07:20:03.127Z,970.51
2022-09-17T07:21:03.113Z,970.41
2022-09-17T07:22:03.018Z,970.45
2022-09-17T07:23:03.169Z,970.37
2022-09-17T07:24:03.240Z,970.53
2022-09-17T07:25:03.273Z,970.44
2022-09-17T07:26:03.182Z,970.44
2022-09-17T07:27:03.291Z,970.52
2022-09-17T07:28:03.362Z,970.49
2022-09-17T07:29:03.437Z,970.55
2022-09-17T07:30:03.351Z,970.57
2022-09-17T07:31:03.695Z,970.69
2022-09-17T07:32:03.769Z,970.80
2022-09-17T07:33:03.565Z,970.71
2022-09-17T07:34:03.749Z,970.66
2022-09-17T07:35:03.900Z,970.60
2022-09-17T07:36:03.843Z,970.74
2022-09-17T07:37:02.935Z,970.65
2022-09-17T07:38:03.107Z,970.68
2022-09-17T07:39:03.204Z,970.62
2022-09-17T07:40:03.250Z,970.71
2022-09-17T07:41:03.203Z,970.68
2022-09-17T07:42:03.174Z,970.74
2022-09-17T07:43:03.191Z,970.68
2022-09-17T07:44:03.195Z,970.59
2022-09-17T07:45:03.232Z,970.77
2022-09-17T07:46:03.437Z,970.79
2022-09-17T07:47:03.266Z,970.91
2022-09-17T07:48:03.308Z,970.88
2022-09-17T07:49:03.449Z,970.99
2022-09-17T07:50:03.384Z,970.85
2022-09-17T07:51:03.426Z,971.08
2022-09-17T07:52:03.355Z,970.99
2022-09-17T07:53:03.345Z,971.05
2022-09-17T07:54:03.327Z,971.11
2022-09-17T07:55:03.268Z,971.11
2022-09-17T07:56:03.256Z,971.13
2022-09-17T07:57:03.328Z,971.13
2022-09-17T07:58:03.294Z,971.07
2022-09-17T07:59:03.327Z,971.13
2022-09-17T08:00:03.340Z,971.13
2022-09-17T08:01:03.335Z,971.27
2022-09-17T08:02:03.476Z,971.12
2022-09-17T08:03:03.559Z,971.15
2022-09-17T08:04:03.365Z,971.26
2022-09-17T08:05:03.470Z,971.26
2022-09-17T08:06:03.441Z,971.29
2022-09-17T08:07:03.637Z,971.20
2022-09-17T08:08:03.539Z,971.17
2022-09-17T08:09:03.605Z,971.34
2022-09-17T08:10:03.788Z,971.31
2022-09-17T08:11:03.768Z,971.37
2022-09-17T08:12:03.830Z,971.34
2022-09-17T08:13:03.858Z,971.39
2022-09-17T08:14:02.914Z,971.39
2022-09-17T08:15:03.044Z,971.39
2022-09-17T08:16:03.275Z,971.39
2022-09-17T08:17:03.201Z,971.41
2022-09-17T08:18:03.251Z,971.44
2022-09-17T08:19:03.363Z,971.38
2022-09-17T08:20:03.384Z,971.35
2022-09-17T08:21:03.474Z,971.41
2022-09-17T08:22:03.641Z,971.58
2022-09-17T08:23:03.779Z,971.49
2022-09-17T08:24:03.809Z,971.49
2022-09-17T08:25:03.839Z,971.46
2022-09-17T08:26:03.964Z,971.38
2022-09-17T08:27:02.940Z,971.41
2022-09-17T08:28:02.973Z,971.59
2022-09-17T08:29:03.026Z,971.47
2022-09-17T08:30:03.096Z,971.56
2022-09-17T08:31:03.327Z,971.54
2022-09-17T08:32:03.099Z,971.57
2022-09-17T08:33:03.105Z,971.60
2022-09-17T08:34:03.139Z,971.60
2022-09-17T08:35:03.226Z,971.63
2022-09-17T08:36:03.347Z,971.58
2022-09-17T08:37:03.353Z,971.58
2022-09-17T08:38:03.303Z,971.69
2022-09-17T08:39:03.634Z,971.60
2022-09-17T08:40:03.638Z,971.55
2022-09-17T08:41:03.414Z,971.63
2022-09-17T08:42:03.571Z,971.72
2022-09-17T08:43:03.579Z,971.46
2022-09-17T08:44:03.561Z,971.63
2022-09-17T08:45:03.705Z,971.63
2022-09-17T08:46:03.831Z,971.57
2022-09-17T08:47:03.811Z,971.68
2022-09-17T08:48:02.973Z,971.48
2022-09-17T08:49:02.972Z,971.56
2022-09-17T08:50:02.987Z,971.70
2022-09-17T08:51:08.719Z,971.78
2022-09-17T08:52:03.080Z,971.77
2022-09-17T08:53:03.085Z,971.68
2022-09-17T08:54:03.044Z,971.68
2022-09-17T08:55:03.154Z,971.71
2022-09-17T08:56:03.189Z,971.82
2022-09-17T08:57:03.163Z,971.82
2022-09-17T08:58:03.256Z,971.70
2022-09-17T08:59:03.256Z,971.87
2022-09-17T09:00:03.426Z,971.92
2022-09-17T09:01:03.362Z,971.83
2022-09-17T09:02:03.679Z,971.92
2022-09-17T09:03:03.543Z,971.86
2022-09-17T09:04:03.469Z,971.92
2022-09-17T09:05:03.610Z,971.92
2022-09-17T09:06:10.942Z,972.01
2022-09-17T09:07:03.538Z,972.04
2022-09-17T09:08:03.602Z,971.98
2022-09-17T09:09:03.765Z,972.16
2022-09-17T09:10:03.838Z,972.30
2022-09-17T09:11:03.838Z,972.16
2022-09-17T09:12:03.859Z,972.31
2022-09-17T09:13:02.989Z,972.14
2022-09-17T09:14:03.881Z,972.25
2022-09-17T09:15:03.030Z,972.20
2022-09-17T09:16:03.124Z,972.26
2022-09-17T09:17:03.226Z,972.32
2022-09-17T09:18:03.674Z,972.26
2022-09-17T09:19:03.701Z,972.26
2022-09-17T09:20:03.687Z,972.38
2022-09-17T09:21:03.741Z,972.32
2022-09-17T09:22:03.759Z,972.27
2022-09-17T09:23:03.913Z,972.24
2022-09-17T09:24:03.098Z,972.33
2022-09-17T09:25:03.210Z,972.47
2022-09-17T09:26:03.157Z,972.33
2022-09-17T09:27:03.189Z,972.52
2022-09-17T09:28:03.178Z,972.47
2022-09-17T09:29:03.203Z,972.19
2022-09-17T09:30:03.338Z,972.44
2022-09-17T09:31:03.428Z,972.41
2022-09-17T09:32:03.383Z,972.44
2022-09-17T09:33:03.487Z,972.41
2022-09-17T09:34:04.158Z,972.38
2022-09-17T09:35:03.509Z,972.38
2022-09-17T09:36:03.667Z,972.29
2022-09-17T09:37:03.721Z,972.40
2022-09-17T09:38:03.808Z,972.37
2022-09-17T09:39:03.841Z,972.22
2022-09-17T09:40:03.374Z,972.34
2022-09-17T09:41:03.049Z,972.34
2022-09-17T09:42:03.135Z,972.28
2022-09-17T09:43:03.222Z,972.33
2022-09-17T09:44:05.420Z,972.45
2022-09-17T09:45:05.859Z,972.39
2022-09-17T09:46:03.290Z,972.39
2022-09-17T09:47:03.646Z,972.44
2022-09-17T09:48:03.571Z,972.30
2022-09-17T09:49:03.473Z,972.39
2022-09-17T09:50:03.526Z,972.52
2022-09-17T09:51:07.411Z,972.55
2022-09-17T09:52:03.549Z,972.61
2022-09-17T09:53:03.676Z,972.42
2022-09-17T09:54:03.640Z,972.64
2022-09-17T09:55:03.776Z,972.53
2022-09-17T09:56:02.899Z,972.48
2022-09-17T09:57:02.945Z,972.53
2022-09-17T09:58:02.983Z,972.56
2022-09-17T09:59:02.975Z,972.53
2022-09-17T10:00:03.032Z,972.43
2022-09-17T10:01:03.015Z,972.43
2022-09-17T10:02:03.336Z,972.54
2022-09-17T10:03:03.170Z,972.43
2022-09-17T10:04:03.057Z,972.37
2022-09-17T10:05:02.987Z,972.57
2022-09-17T10:06:03.154Z,972.40
2022-09-17T10:07:03.155Z,972.35
2022-09-17T10:08:03.044Z,972.32
2022-09-17T10:09:03.044Z,972.43
2022-09-17T10:10:03.138Z,972.31
2022-09-17T10:11:03.123Z,972.31
2022-09-17T10:12:03.145Z,972.17
2022-09-17T10:13:03.109Z,972.36
2022-09-17T10:14:09.866Z,972.36
2022-09-17T10:15:03.274Z,972.27
2022-09-17T10:16:03.504Z,972.29
2022-09-17T10:17:03.513Z,972.17
2022-09-17T10:18:03.531Z,972.25
2022-09-17T10:19:03.584Z,972.31
2022-09-17T10:20:03.556Z,972.13
2022-09-17T10:21:03.567Z,972.19
2022-09-17T10:22:03.626Z,972.27
2022-09-17T10:23:03.678Z,972.36
2022-09-17T10:24:03.780Z,972.34
2022-09-17T10:25:03.538Z,972.25
2022-09-17T10:26:03.545Z,972.39
2022-09-17T10:27:03.610Z,972.20
2022-09-17T10:28:03.692Z,972.37
2022-09-17T10:29:03.830Z,972.46
2022-09-17T10:30:03.890Z,972.43
2022-09-17T10:31:09.067Z,972.60
2022-09-17T10:32:03.030Z,972.47
2022-09-17T10:33:02.909Z,972.52
2022-09-17T10:34:02.932Z,972.47
2022-09-17T10:35:02.982Z,972.33
2022-09-17T10:36:02.938Z,972.48
2022-09-17T10:37:02.931Z,972.31
2022-09-17T10:38:03.605Z,972.45
2022-09-17T10:39:04.417Z,972.43
2022-09-17T10:40:03.206Z,972.62
2022-09-17T10:41:03.173Z,972.43
2022-09-17T10:42:03.303Z,972.48
2022-09-17T10:43:03.416Z,972.43
2022-09-17T10:44:03.531Z,972.56
2022-09-17T10:45:03.476Z,972.53
2022-09-17T10:46:03.485Z,972.43
2022-09-17T10:47:03.736Z,972.45
2022-09-17T10:48:03.682Z,972.42
2022-09-17T10:49:03.734Z,972.33
2022-09-17T10:50:03.772Z,972.30
2022-09-17T10:51:02.925Z,972.38
2022-09-17T10:52:02.995Z,972.34
2022-09-17T10:53:03.277Z,972.28
2022-09-17T10:54:03.311Z,972.30
2022-09-17T10:55:03.447Z,972.04
2022-09-17T10:56:03.357Z,972.09
2022-09-17T10:57:03.373Z,972.17
2022-09-17T10:58:03.457Z,972.08
2022-09-17T10:59:03.449Z,971.99
2022-09-17T11:00:03.526Z,972.02
2022-09-17T11:01:03.551Z,972.10
2022-09-17T11:02:03.934Z,971.95
2022-09-17T11:03:03.926Z,972.09
2022-09-17T11:04:02.961Z,972.06
2022-09-17T11:05:02.894Z,972.06
2022-09-17T11:06:02.985Z,972.08
2022-09-17T11:07:03.002Z,972.11
2022-09-17T11:08:03.118Z,971.96
2022-09-17T11:09:03.098Z,972.07
2022-09-17T11:10:03.270Z,972.07
2022-09-17T11:11:03.348Z,972.04
2022-09-17T11:12:03.357Z,972.12
2022-09-17T11:13:03.441Z,972.18
2022-09-17T11:14:03.459Z,972.18
2022-09-17T11:15:03.580Z,972.32
2022-09-17T11:16:03.814Z,972.07
2022-09-17T11:17:03.701Z,972.18
2022-09-17T11:18:03.811Z,972.24
2022-09-17T11:19:03.776Z,972.39
2022-09-17T11:20:03.904Z,972.39
2022-09-17T11:21:03.030Z,972.45
2022-09-17T11:22:03.224Z,972.36
2022-09-17T11:23:03.224Z,972.42
2022-09-17T11:24:03.358Z,972.42
2022-09-17T11:25:03.509Z,972.42
2022-09-17T11:26:03.505Z,972.48
2022-09-17T11:27:03.504Z,972.42
2022-09-17T11:28:03.502Z,972.44
2022-09-17T11:29:03.441Z,972.52
2022-09-17T11:30:03.579Z,972.39
2022-09-17T11:31:03.834Z,972.45
2022-09-17T11:32:03.710Z,972.42
2022-09-17T11:33:03.620Z,972.33
2022-09-17T11:34:03.006Z,972.36
2022-09-17T11:35:02.979Z,972.24
2022-09-17T11:36:02.998Z,972.38
2022-09-17T11:37:02.962Z,972.52
2022-09-17T11:38:03.077Z,972.64
2022-09-17T11:39:03.088Z,972.70
2022-09-17T11:40:03.351Z,972.70
2022-09-17T11:41:03.244Z,972.67
2022-09-17T11:42:03.280Z,972.71
2022-09-17T11:43:03.358Z,972.62
2022-09-17T11:44:03.504Z,972.71
2022-09-17T11:45:03.471Z,972.66
2022-09-17T11:46:03.379Z,972.69
2022-09-17T11:47:03.521Z,972.72
2022-09-17T11:48:03.475Z,972.64
2022-09-17T11:49:03.429Z,972.72
2022-09-17T11:50:03.406Z,972.75
2022-09-17T11:51:03.687Z,972.61
2022-09-17T11:52:03.587Z,972.61
2022-09-17T11:53:03.492Z,972.60
2022-09-17T11:54:03.722Z,972.58
2022-09-17T11:55:03.705Z,972.44
2022-09-17T11:56:03.691Z,972.60
2022-09-17T11:57:09.810Z,972.57
2022-09-17T11:58:03.667Z,972.47
2022-09-17T11:59:03.783Z,972.44
2022-09-17T12:00:03.891Z,972.60
2022-09-17T12:01:03.934Z,972.52
2022-09-17T12:02:03.089Z,972.42
2022-09-17T12:03:03.017Z,972.52
2022-09-17T12:04:02.942Z,972.67
2022-09-17T12:05:03.038Z,972.48
2022-09-17T12:06:03.090Z,972.45
2022-09-17T12:07:03.193Z,972.45
2022-09-17T12:08:03.147Z,972.31
2022-09-17T12:09:03.086Z,972.42
2022-09-17T12:10:03.297Z,972.30
2022-09-17T12:11:03.232Z,972.39
2022-09-17T12:12:03.208Z,972.45
2022-09-17T12:13:03.238Z,972.48
2022-09-17T12:14:03.368Z,972.39
2022-09-17T12:15:03.365Z,972.61
2022-09-17T12:16:03.535Z,972.45
2022-09-17T12:17:03.375Z,972.55
2022-09-17T12:18:32.528Z,972.58
2022-09-17T12:19:03.274Z,972.67
2022-09-17T12:20:03.246Z,972.61
2022-09-17T12:21:03.396Z,972.78
2022-09-17T12:22:03.388Z,972.70
2022-09-17T12:23:03.454Z,972.70
2022-09-17T12:24:03.532Z,972.73
2022-09-17T12:25:03.617Z,972.76
2022-09-17T12:26:03.753Z,972.90
2022-09-17T12:27:03.765Z,973.04
2022-09-17T12:28:03.802Z,972.90